sensor_id;sensor_type;location;lat;lon;timestamp;temperature;humidity
15217;DHT22;7711;46.634;14.318;2022-07-25T00:01:48;21.20;99.90
15217;DHT22;7711;46.634;14.318;2022-07-25T00:04:20;21.20;99.90
15217;DHT22;7711;46.634;14.318;2022-07-25T00:06:47;21.20;99.90
15217;DHT22;7711;46.634;14.318;2022-07-25T00:09:14;21.10;99.90
15217;DHT22;7711;46.634;14.318;2022-07-25T00:11:41;21.00;99.90
15217;DHT22;7711;46.634;14.318;2022-07-25T00:14:09;20.90;99.90
15217;DHT22;7711;46.634;14.318;2022-07-25T00:16:36;20.80;99.90
15217;DHT22;7711;46.634;14.318;2022-07-25T00:19:05;20.90;99.90
15217;DHT22;7711;46.634;14.318;2022-07-25T00:21:37;20.80;99.90
15217;DHT22;7711;46.634;14.318;2022-07-25T00:24:04;20.90;99.90
15217;DHT22;7711;46.634;14.318;2022-07-25T00:26:32;20.80;99.90
15217;DHT22;7711;46.634;14.318;2022-07-25T00:28:59;20.80;99.90
15217;DHT22;7711;46.634;14.318;2022-07-25T00:31:28;20.70;99.90
15217;DHT22;7711;46.634;14.318;2022-07-25T00:33:57;20.80;99.90
15217;DHT22;7711;46.634;14.318;2022-07-25T00:36:27;20.70;99.90
15217;DHT22;7711;46.634;14.318;2022-07-25T00:38:55;20.70;99.90
15217;DHT22;7711;46.634;14.318;2022-07-25T00:41:23;20.60;99.90
15217;DHT22;7711;46.634;14.318;2022-07-25T00:43:50;20.60;99.90
15217;DHT22;7711;46.634;14.318;2022-07-25T00:46:17;20.50;99.90
15217;DHT22;7711;46.634;14.318;2022-07-25T00:48:47;20.40;99.90
15217;DHT22;7711;46.634;14.318;2022-07-25T00:51:16;20.40;99.90
15217;DHT22;7711;46.634;14.318;2022-07-25T00:53:45;20.40;99.90
15217;DHT22;7711;46.634;14.318;2022-07-25T00:56:16;20.40;99.90
15217;DHT22;7711;46.634;14.318;2022-07-25T00:58:44;20.30;99.90
15217;DHT22;7711;46.634;14.318;2022-07-25T01:01:11;20.40;99.90
15217;DHT22;7711;46.634;14.318;2022-07-25T01:03:38;20.40;99.90
15217;DHT22;7711;46.634;14.318;2022-07-25T01:06:06;20.40;99.90
15217;DHT22;7711;46.634;14.318;2022-07-25T01:08:34;20.30;99.90
15217;DHT22;7711;46.634;14.318;2022-07-25T01:11:03;20.30;99.90
15217;DHT22;7711;46.634;14.318;2022-07-25T01:13:33;20.30;99.90
15217;DHT22;7711;46.634;14.318;2022-07-25T01:16:00;20.20;99.90
15217;DHT22;7711;46.634;14.318;2022-07-25T01:18:27;20.10;99.90
15217;DHT22;7711;46.634;14.318;2022-07-25T01:20:56;20.10;99.90
15217;DHT22;7711;46.634;14.318;2022-07-25T01:23:25;20.20;99.90
15217;DHT22;7711;46.634;14.318;2022-07-25T01:25:55;20.20;99.90
15217;DHT22;7711;46.634;14.318;2022-07-25T01:28:22;20.20;99.90
15217;DHT22;7711;46.634;14.318;2022-07-25T01:30:51;20.10;99.90
15217;DHT22;7711;46.634;14.318;2022-07-25T01:33:21;20.00;99.90
15217;DHT22;7711;46.634;14.318;2022-07-25T01:35:50;20.10;99.90
15217;DHT22;7711;46.634;14.318;2022-07-25T01:38:19;20.00;99.90
15217;DHT22;7711;46.634;14.318;2022-07-25T01:40:49;20.00;99.90
15217;DHT22;7711;46.634;14.318;2022-07-25T01:43:16;20.00;99.90
15217;DHT22;7711;46.634;14.318;2022-07-25T01:45:46;19.90;99.90
15217;DHT22;7711;46.634;14.318;2022-07-25T01:48:13;19.90;99.90
15217;DHT22;7711;46.634;14.318;2022-07-25T01:50:40;19.80;99.90
15217;DHT22;7711;46.634;14.318;2022-07-25T01:53:09;19.70;99.90
15217;DHT22;7711;46.634;14.318;2022-07-25T01:55:38;19.70;99.90
15217;DHT22;7711;46.634;14.318;2022-07-25T01:58:05;19.70;99.90
15217;DHT22;7711;46.634;14.318;2022-07-25T02:00:32;19.70;99.90
15217;DHT22;7711;46.634;14.318;2022-07-25T02:03:04;19.70;99.90
15217;DHT22;7711;46.634;14.318;2022-07-25T02:05:49;19.70;99.90
15217;DHT22;7711;46.634;14.318;2022-07-25T02:08:18;19.70;99.90
15217;DHT22;7711;46.634;14.318;2022-07-25T02:10:48;19.70;99.90
15217;DHT22;7711;46.634;14.318;2022-07-25T02:13:18;19.70;99.90
15217;DHT22;7711;46.634;14.318;2022-07-25T02:15:48;19.70;99.90
15217;DHT22;7711;46.634;14.318;2022-07-25T02:18:17;19.70;99.90
15217;DHT22;7711;46.634;14.318;2022-07-25T02:20:44;19.70;99.90
15217;DHT22;7711;46.634;14.318;2022-07-25T02:23:14;19.70;99.90
15217;DHT22;7711;46.634;14.318;2022-07-25T02:25:43;19.50;99.90
15217;DHT22;7711;46.634;14.318;2022-07-25T02:28:12;19.50;99.90
15217;DHT22;7711;46.634;14.318;2022-07-25T02:30:39;19.40;99.90
15217;DHT22;7711;46.634;14.318;2022-07-25T02:33:06;19.40;99.90
15217;DHT22;7711;46.634;14.318;2022-07-25T02:35:36;19.40;99.90
15217;DHT22;7711;46.634;14.318;2022-07-25T02:38:03;19.30;99.90
15217;DHT22;7711;46.634;14.318;2022-07-25T02:40:31;19.40;99.90
15217;DHT22;7711;46.634;14.318;2022-07-25T02:43:01;19.40;99.90
15217;DHT22;7711;46.634;14.318;2022-07-25T02:45:32;19.40;99.90
15217;DHT22;7711;46.634;14.318;2022-07-25T02:47:59;19.40;99.90
15217;DHT22;7711;46.634;14.318;2022-07-25T02:50:27;19.30;99.90
15217;DHT22;7711;46.634;14.318;2022-07-25T02:52:56;19.20;99.90
15217;DHT22;7711;46.634;14.318;2022-07-25T02:55:23;19.20;99.90
15217;DHT22;7711;46.634;14.318;2022-07-25T02:57:53;19.20;99.90
15217;DHT22;7711;46.634;14.318;2022-07-25T03:00:23;19.20;99.90
15217;DHT22;7711;46.634;14.318;2022-07-25T03:02:54;19.10;99.90
15217;DHT22;7711;46.634;14.318;2022-07-25T03:05:26;19.10;99.90
15217;DHT22;7711;46.634;14.318;2022-07-25T03:07:54;19.00;99.90
15217;DHT22;7711;46.634;14.318;2022-07-25T03:10:25;19.00;99.90
15217;DHT22;7711;46.634;14.318;2022-07-25T03:12:59;18.90;99.90
15217;DHT22;7711;46.634;14.318;2022-07-25T03:15:28;19.00;99.90
15217;DHT22;7711;46.634;14.318;2022-07-25T03:17:59;19.00;99.90
15217;DHT22;7711;46.634;14.318;2022-07-25T03:20:29;19.00;99.90
15217;DHT22;7711;46.634;14.318;2022-07-25T03:22:56;18.90;99.90
15217;DHT22;7711;46.634;14.318;2022-07-25T03:25:24;18.90;99.90
15217;DHT22;7711;46.634;14.318;2022-07-25T03:27:51;18.80;99.90
15217;DHT22;7711;46.634;14.318;2022-07-25T03:30:18;18.70;99.90
15217;DHT22;7711;46.634;14.318;2022-07-25T03:32:45;18.70;99.90
15217;DHT22;7711;46.634;14.318;2022-07-25T03:35:16;18.80;99.90
15217;DHT22;7711;46.634;14.318;2022-07-25T03:37:43;18.80;99.90
15217;DHT22;7711;46.634;14.318;2022-07-25T03:40:11;18.80;99.90
15217;DHT22;7711;46.634;14.318;2022-07-25T03:42:40;18.80;99.90
15217;DHT22;7711;46.634;14.318;2022-07-25T03:45:08;18.80;99.90
15217;DHT22;7711;46.634;14.318;2022-07-25T03:47:36;18.80;99.90
15217;DHT22;7711;46.634;14.318;2022-07-25T03:50:04;18.70;99.90
15217;DHT22;7711;46.634;14.318;2022-07-25T03:52:34;18.70;99.90
15217;DHT22;7711;46.634;14.318;2022-07-25T03:55:03;18.70;99.90
15217;DHT22;7711;46.634;14.318;2022-07-25T03:57:32;18.80;99.90
15217;DHT22;7711;46.634;14.318;2022-07-25T03:59:59;18.90;99.90
15217;DHT22;7711;46.634;14.318;2022-07-25T04:02:28;18.80;99.90
15217;DHT22;7711;46.634;14.318;2022-07-25T04:04:56;18.80;99.90
15217;DHT22;7711;46.634;14.318;2022-07-25T04:07:23;18.80;99.90
15217;DHT22;7711;46.634;14.318;2022-07-25T04:09:53;18.80;99.90
15217;DHT22;7711;46.634;14.318;2022-07-25T04:12:22;18.80;99.90
15217;DHT22;7711;46.634;14.318;2022-07-25T04:14:49;19.00;99.90
15217;DHT22;7711;46.634;14.318;2022-07-25T04:17:16;19.00;99.90
15217;DHT22;7711;46.634;14.318;2022-07-25T04:19:45;19.10;99.90
15217;DHT22;7711;46.634;14.318;2022-07-25T04:22:14;19.00;99.90
15217;DHT22;7711;46.634;14.318;2022-07-25T04:24:42;19.10;99.90
15217;DHT22;7711;46.634;14.318;2022-07-25T04:27:10;19.20;99.90
15217;DHT22;7711;46.634;14.318;2022-07-25T04:29:37;19.30;99.90
15217;DHT22;7711;46.634;14.318;2022-07-25T04:32:07;19.30;99.90
15217;DHT22;7711;46.634;14.318;2022-07-25T04:34:37;19.40;99.90
15217;DHT22;7711;46.634;14.318;2022-07-25T04:37:07;19.40;99.90
15217;DHT22;7711;46.634;14.318;2022-07-25T04:39:34;19.40;99.90
15217;DHT22;7711;46.634;14.318;2022-07-25T04:42:02;19.40;99.90
15217;DHT22;7711;46.634;14.318;2022-07-25T04:44:31;19.50;99.90
15217;DHT22;7711;46.634;14.318;2022-07-25T04:46:58;19.60;99.90
15217;DHT22;7711;46.634;14.318;2022-07-25T04:49:26;19.60;99.90
15217;DHT22;7711;46.634;14.318;2022-07-25T04:51:53;19.60;99.90
15217;DHT22;7711;46.634;14.318;2022-07-25T04:54:20;19.70;99.90
15217;DHT22;7711;46.634;14.318;2022-07-25T04:56:47;19.70;99.90
15217;DHT22;7711;46.634;14.318;2022-07-25T04:59:17;19.80;99.90
15217;DHT22;7711;46.634;14.318;2022-07-25T05:01:46;19.80;99.90
15217;DHT22;7711;46.634;14.318;2022-07-25T05:04:13;19.80;99.90
15217;DHT22;7711;46.634;14.318;2022-07-25T05:06:40;19.80;99.90
15217;DHT22;7711;46.634;14.318;2022-07-25T05:09:08;19.80;99.90
15217;DHT22;7711;46.634;14.318;2022-07-25T05:11:35;20.00;99.90
15217;DHT22;7711;46.634;14.318;2022-07-25T05:14:04;20.20;99.90
15217;DHT22;7711;46.634;14.318;2022-07-25T05:16:33;20.30;99.90
15217;DHT22;7711;46.634;14.318;2022-07-25T05:19:03;20.40;99.90
15217;DHT22;7711;46.634;14.318;2022-07-25T05:21:32;20.40;99.90
15217;DHT22;7711;46.634;14.318;2022-07-25T05:23:59;20.30;99.90
15217;DHT22;7711;46.634;14.318;2022-07-25T05:26:28;20.40;99.90
15217;DHT22;7711;46.634;14.318;2022-07-25T05:28:56;20.50;99.90
15217;DHT22;7711;46.634;14.318;2022-07-25T05:31:27;20.60;99.90
15217;DHT22;7711;46.634;14.318;2022-07-25T05:33:54;20.70;99.90
15217;DHT22;7711;46.634;14.318;2022-07-25T05:36:23;20.80;99.90
15217;DHT22;7711;46.634;14.318;2022-07-25T05:38:50;20.80;99.90
15217;DHT22;7711;46.634;14.318;2022-07-25T05:41:17;20.90;99.90
15217;DHT22;7711;46.634;14.318;2022-07-25T05:43:44;21.00;99.90
15217;DHT22;7711;46.634;14.318;2022-07-25T05:46:14;20.90;99.90
15217;DHT22;7711;46.634;14.318;2022-07-25T05:48:42;21.10;99.90
15217;DHT22;7711;46.634;14.318;2022-07-25T05:51:09;21.20;99.90
15217;DHT22;7711;46.634;14.318;2022-07-25T05:53:38;21.30;99.90
15217;DHT22;7711;46.634;14.318;2022-07-25T05:56:06;21.40;99.90
15217;DHT22;7711;46.634;14.318;2022-07-25T05:58:33;21.50;99.90
15217;DHT22;7711;46.634;14.318;2022-07-25T06:01:03;21.50;99.90
15217;DHT22;7711;46.634;14.318;2022-07-25T06:03:31;21.70;99.90
15217;DHT22;7711;46.634;14.318;2022-07-25T06:05:59;21.70;99.90
15217;DHT22;7711;46.634;14.318;2022-07-25T06:08:26;21.70;99.90
15217;DHT22;7711;46.634;14.318;2022-07-25T06:10:57;21.80;99.90
15217;DHT22;7711;46.634;14.318;2022-07-25T06:13:24;22.00;99.90
15217;DHT22;7711;46.634;14.318;2022-07-25T06:15:51;22.00;99.90
15217;DHT22;7711;46.634;14.318;2022-07-25T06:18:19;21.90;99.90
15217;DHT22;7711;46.634;14.318;2022-07-25T06:20:46;22.10;99.90
15217;DHT22;7711;46.634;14.318;2022-07-25T06:23:17;22.10;99.90
15217;DHT22;7711;46.634;14.318;2022-07-25T06:25:47;22.00;99.90
15217;DHT22;7711;46.634;14.318;2022-07-25T06:28:17;22.30;99.90
15217;DHT22;7711;46.634;14.318;2022-07-25T06:30:47;22.40;99.90
15217;DHT22;7711;46.634;14.318;2022-07-25T06:33:14;22.50;99.90
15217;DHT22;7711;46.634;14.318;2022-07-25T06:35:41;22.60;99.90
15217;DHT22;7711;46.634;14.318;2022-07-25T06:38:09;22.80;99.90
15217;DHT22;7711;46.634;14.318;2022-07-25T06:40:36;22.90;99.90
15217;DHT22;7711;46.634;14.318;2022-07-25T06:43:06;22.90;99.90
15217;DHT22;7711;46.634;14.318;2022-07-25T06:45:35;23.10;99.90
15217;DHT22;7711;46.634;14.318;2022-07-25T06:48:02;23.00;99.90
15217;DHT22;7711;46.634;14.318;2022-07-25T06:50:29;23.20;99.90
15217;DHT22;7711;46.634;14.318;2022-07-25T06:52:58;23.40;99.90
15217;DHT22;7711;46.634;14.318;2022-07-25T06:55:27;23.70;99.90
15217;DHT22;7711;46.634;14.318;2022-07-25T06:57:54;23.60;99.90
15217;DHT22;7711;46.634;14.318;2022-07-25T07:00:22;23.80;99.90
15217;DHT22;7711;46.634;14.318;2022-07-25T07:02:52;23.80;99.90
15217;DHT22;7711;46.634;14.318;2022-07-25T07:05:21;23.90;99.90
15217;DHT22;7711;46.634;14.318;2022-07-25T07:07:48;24.00;99.90
15217;DHT22;7711;46.634;14.318;2022-07-25T07:10:16;24.30;99.90
15217;DHT22;7711;46.634;14.318;2022-07-25T07:12:44;24.30;99.90
15217;DHT22;7711;46.634;14.318;2022-07-25T07:15:13;24.50;99.90
15217;DHT22;7711;46.634;14.318;2022-07-25T07:17:42;24.70;99.90
15217;DHT22;7711;46.634;14.318;2022-07-25T07:20:12;24.90;99.90
15217;DHT22;7711;46.634;14.318;2022-07-25T07:22:43;25.00;99.90
15217;DHT22;7711;46.634;14.318;2022-07-25T07:25:12;24.90;99.90
15217;DHT22;7711;46.634;14.318;2022-07-25T07:27:41;25.10;99.90
15217;DHT22;7711;46.634;14.318;2022-07-25T07:30:09;25.30;99.90
15217;DHT22;7711;46.634;14.318;2022-07-25T07:32:36;25.70;99.90
15217;DHT22;7711;46.634;14.318;2022-07-25T07:35:04;25.70;99.90
15217;DHT22;7711;46.634;14.318;2022-07-25T07:37:33;26.00;99.90
15217;DHT22;7711;46.634;14.318;2022-07-25T07:40:00;26.00;99.90
15217;DHT22;7711;46.634;14.318;2022-07-25T07:42:36;25.90;99.90
15217;DHT22;7711;46.634;14.318;2022-07-25T07:45:12;25.90;99.90
15217;DHT22;7711;46.634;14.318;2022-07-25T07:47:39;26.10;99.90
15217;DHT22;7711;46.634;14.318;2022-07-25T07:50:08;26.10;99.90
15217;DHT22;7711;46.634;14.318;2022-07-25T07:52:37;26.00;99.90
15217;DHT22;7711;46.634;14.318;2022-07-25T07:55:05;26.10;99.90
15217;DHT22;7711;46.634;14.318;2022-07-25T07:57:52;25.80;99.90
15217;DHT22;7711;46.634;14.318;2022-07-25T08:00:21;26.00;99.90
15217;DHT22;7711;46.634;14.318;2022-07-25T08:02:51;26.40;99.90
15217;DHT22;7711;46.634;14.318;2022-07-25T08:05:21;26.60;99.90
15217;DHT22;7711;46.634;14.318;2022-07-25T08:07:51;26.70;99.90
15217;DHT22;7711;46.634;14.318;2022-07-25T08:10:20;26.70;99.90
15217;DHT22;7711;46.634;14.318;2022-07-25T08:12:49;26.80;99.90
15217;DHT22;7711;46.634;14.318;2022-07-25T08:15:19;27.10;99.90
15217;DHT22;7711;46.634;14.318;2022-07-25T08:17:47;26.80;99.90
15217;DHT22;7711;46.634;14.318;2022-07-25T08:20:15;26.90;99.90
15217;DHT22;7711;46.634;14.318;2022-07-25T08:22:43;26.90;99.90
15217;DHT22;7711;46.634;14.318;2022-07-25T08:25:15;26.90;99.90
15217;DHT22;7711;46.634;14.318;2022-07-25T08:27:46;27.30;99.90
15217;DHT22;7711;46.634;14.318;2022-07-25T08:30:15;27.40;99.90
15217;DHT22;7711;46.634;14.318;2022-07-25T08:32:46;27.40;99.90
15217;DHT22;7711;46.634;14.318;2022-07-25T08:35:14;27.60;99.90
15217;DHT22;7711;46.634;14.318;2022-07-25T08:37:42;27.60;99.90
15217;DHT22;7711;46.634;14.318;2022-07-25T08:40:11;27.40;99.90
15217;DHT22;7711;46.634;14.318;2022-07-25T08:42:41;27.70;99.90
15217;DHT22;7711;46.634;14.318;2022-07-25T08:45:12;27.70;99.90
15217;DHT22;7711;46.634;14.318;2022-07-25T08:47:41;27.80;99.90
15217;DHT22;7711;46.634;14.318;2022-07-25T08:50:10;27.60;99.90
15217;DHT22;7711;46.634;14.318;2022-07-25T08:52:46;27.10;99.90
15217;DHT22;7711;46.634;14.318;2022-07-25T08:55:15;27.40;99.90
15217;DHT22;7711;46.634;14.318;2022-07-25T08:57:47;27.30;99.90
15217;DHT22;7711;46.634;14.318;2022-07-25T09:00:17;27.70;99.90
15217;DHT22;7711;46.634;14.318;2022-07-25T09:02:51;27.80;99.90
15217;DHT22;7711;46.634;14.318;2022-07-25T09:05:19;28.20;99.90
15217;DHT22;7711;46.634;14.318;2022-07-25T09:07:47;28.40;99.90
15217;DHT22;7711;46.634;14.318;2022-07-25T09:10:16;28.40;99.90
15217;DHT22;7711;46.634;14.318;2022-07-25T09:12:53;28.50;99.90
15217;DHT22;7711;46.634;14.318;2022-07-25T09:15:25;28.40;99.90
15217;DHT22;7711;46.634;14.318;2022-07-25T09:17:54;28.20;99.90
15217;DHT22;7711;46.634;14.318;2022-07-25T09:20:22;27.90;99.90
15217;DHT22;7711;46.634;14.318;2022-07-25T09:22:52;28.10;99.90
15217;DHT22;7711;46.634;14.318;2022-07-25T09:25:26;28.50;99.90
15217;DHT22;7711;46.634;14.318;2022-07-25T09:28:09;28.50;99.90
15217;DHT22;7711;46.634;14.318;2022-07-25T09:30:36;28.50;99.90
15217;DHT22;7711;46.634;14.318;2022-07-25T09:33:05;28.80;99.90
15217;DHT22;7711;46.634;14.318;2022-07-25T09:35:34;28.70;99.90
15217;DHT22;7711;46.634;14.318;2022-07-25T09:38:10;29.00;99.90
15217;DHT22;7711;46.634;14.318;2022-07-25T09:40:39;29.20;99.90
15217;DHT22;7711;46.634;14.318;2022-07-25T09:43:08;28.90;99.90
15217;DHT22;7711;46.634;14.318;2022-07-25T09:45:35;28.90;99.90
15217;DHT22;7711;46.634;14.318;2022-07-25T09:48:04;29.30;99.90
15217;DHT22;7711;46.634;14.318;2022-07-25T09:50:32;29.70;99.90
15217;DHT22;7711;46.634;14.318;2022-07-25T09:53:00;29.90;99.90
15217;DHT22;7711;46.634;14.318;2022-07-25T09:55:29;30.20;99.90
15217;DHT22;7711;46.634;14.318;2022-07-25T09:57:56;30.10;99.90
15217;DHT22;7711;46.634;14.318;2022-07-25T10:00:27;29.80;99.90
15217;DHT22;7711;46.634;14.318;2022-07-25T10:03:15;29.70;99.90
15217;DHT22;7711;46.634;14.318;2022-07-25T10:06:01;29.60;99.90
15217;DHT22;7711;46.634;14.318;2022-07-25T10:08:35;29.60;99.90
15217;DHT22;7711;46.634;14.318;2022-07-25T10:11:03;29.00;99.90
15217;DHT22;7711;46.634;14.318;2022-07-25T10:13:32;29.10;99.90
15217;DHT22;7711;46.634;14.318;2022-07-25T10:16:13;29.20;99.90
15217;DHT22;7711;46.634;14.318;2022-07-25T10:18:47;29.30;99.90
15217;DHT22;7711;46.634;14.318;2022-07-25T10:21:15;29.70;99.90
15217;DHT22;7711;46.634;14.318;2022-07-25T10:23:43;30.20;99.90
15217;DHT22;7711;46.634;14.318;2022-07-25T10:26:12;30.30;99.90
15217;DHT22;7711;46.634;14.318;2022-07-25T10:28:42;30.50;99.90
15217;DHT22;7711;46.634;14.318;2022-07-25T10:31:19;30.90;99.90
15217;DHT22;7711;46.634;14.318;2022-07-25T10:33:54;31.10;99.90
15217;DHT22;7711;46.634;14.318;2022-07-25T10:36:22;31.40;99.90
15217;DHT22;7711;46.634;14.318;2022-07-25T10:38:51;31.60;99.90
15217;DHT22;7711;46.634;14.318;2022-07-25T10:41:23;31.30;99.70
15217;DHT22;7711;46.634;14.318;2022-07-25T10:43:58;30.50;99.00
15217;DHT22;7711;46.634;14.318;2022-07-25T10:46:27;30.40;99.70
15217;DHT22;7711;46.634;14.318;2022-07-25T10:49:03;30.70;99.30
15217;DHT22;7711;46.634;14.318;2022-07-25T10:51:32;30.80;99.00
15217;DHT22;7711;46.634;14.318;2022-07-25T10:54:11;31.10;99.70
15217;DHT22;7711;46.634;14.318;2022-07-25T10:56:50;31.60;99.30
15217;DHT22;7711;46.634;14.318;2022-07-25T10:59:29;32.00;98.40
15217;DHT22;7711;46.634;14.318;2022-07-25T11:01:58;31.60;97.40
15217;DHT22;7711;46.634;14.318;2022-07-25T11:04:25;31.30;97.40
15217;DHT22;7711;46.634;14.318;2022-07-25T11:06:53;31.30;97.50
15217;DHT22;7711;46.634;14.318;2022-07-25T11:09:21;32.00;98.00
15217;DHT22;7711;46.634;14.318;2022-07-25T11:11:50;32.30;97.00
15217;DHT22;7711;46.634;14.318;2022-07-25T11:14:19;32.40;96.30
15217;DHT22;7711;46.634;14.318;2022-07-25T11:16:50;32.60;95.90
15217;DHT22;7711;46.634;14.318;2022-07-25T11:19:22;32.70;94.50
15217;DHT22;7711;46.634;14.318;2022-07-25T11:21:51;32.30;94.80
15217;DHT22;7711;46.634;14.318;2022-07-25T11:24:19;32.70;95.10
15217;DHT22;7711;46.634;14.318;2022-07-25T11:26:47;32.80;93.50
15217;DHT22;7711;46.634;14.318;2022-07-25T11:29:19;32.30;95.00
15217;DHT22;7711;46.634;14.318;2022-07-25T11:31:53;32.70;93.00
15217;DHT22;7711;46.634;14.318;2022-07-25T11:34:27;32.80;93.50
15217;DHT22;7711;46.634;14.318;2022-07-25T11:36:56;32.30;93.00
15217;DHT22;7711;46.634;14.318;2022-07-25T11:39:25;32.10;92.60
15217;DHT22;7711;46.634;14.318;2022-07-25T11:42:03;32.30;92.80
15217;DHT22;7711;46.634;14.318;2022-07-25T11:44:35;32.70;93.00
15217;DHT22;7711;46.634;14.318;2022-07-25T11:47:04;33.20;92.60
15217;DHT22;7711;46.634;14.318;2022-07-25T11:49:43;33.60;91.90
15217;DHT22;7711;46.634;14.318;2022-07-25T11:52:20;33.80;90.60
15217;DHT22;7711;46.634;14.318;2022-07-25T11:54:57;34.00;91.40
15217;DHT22;7711;46.634;14.318;2022-07-25T11:57:26;34.20;91.50
15217;DHT22;7711;46.634;14.318;2022-07-25T11:59:54;34.20;90.90
15217;DHT22;7711;46.634;14.318;2022-07-25T12:02:23;34.20;89.40
15217;DHT22;7711;46.634;14.318;2022-07-25T12:04:56;34.10;87.80
15217;DHT22;7711;46.634;14.318;2022-07-25T12:07:35;33.50;88.80
15217;DHT22;7711;46.634;14.318;2022-07-25T12:10:06;33.40;88.10
15217;DHT22;7711;46.634;14.318;2022-07-25T12:12:42;33.50;88.80
15217;DHT22;7711;46.634;14.318;2022-07-25T12:15:10;34.00;86.90
15217;DHT22;7711;46.634;14.318;2022-07-25T12:17:39;34.00;87.80
15217;DHT22;7711;46.634;14.318;2022-07-25T12:20:13;34.60;89.10
15217;DHT22;7711;46.634;14.318;2022-07-25T12:22:42;34.80;86.80
15217;DHT22;7711;46.634;14.318;2022-07-25T12:25:10;35.00;87.40
15217;DHT22;7711;46.634;14.318;2022-07-25T12:27:40;34.70;85.70
15217;DHT22;7711;46.634;14.318;2022-07-25T12:30:09;34.70;83.70
15217;DHT22;7711;46.634;14.318;2022-07-25T12:32:37;34.00;83.40
15217;DHT22;7711;46.634;14.318;2022-07-25T12:35:06;33.50;84.90
15217;DHT22;7711;46.634;14.318;2022-07-25T12:37:35;33.50;83.60
15217;DHT22;7711;46.634;14.318;2022-07-25T12:40:04;33.50;83.40
15217;DHT22;7711;46.634;14.318;2022-07-25T12:42:31;33.70;83.50
15217;DHT22;7711;46.634;14.318;2022-07-25T12:44:59;33.70;81.90
15217;DHT22;7711;46.634;14.318;2022-07-25T12:47:27;33.40;82.80
15217;DHT22;7711;46.634;14.318;2022-07-25T12:49:54;34.00;86.00
15217;DHT22;7711;46.634;14.318;2022-07-25T12:52:23;34.70;83.10
15217;DHT22;7711;46.634;14.318;2022-07-25T12:54:54;35.00;82.20
15217;DHT22;7711;46.634;14.318;2022-07-25T12:57:21;35.30;81.90
15217;DHT22;7711;46.634;14.318;2022-07-25T12:59:49;35.40;82.30
15217;DHT22;7711;46.634;14.318;2022-07-25T13:02:16;35.90;80.20
15217;DHT22;7711;46.634;14.318;2022-07-25T13:04:44;36.20;79.90
15217;DHT22;7711;46.634;14.318;2022-07-25T13:07:12;36.60;79.80
15217;DHT22;7711;46.634;14.318;2022-07-25T13:09:41;36.80;77.50
15217;DHT22;7711;46.634;14.318;2022-07-25T13:12:10;36.90;77.20
15217;DHT22;7711;46.634;14.318;2022-07-25T13:14:37;36.70;76.50
15217;DHT22;7711;46.634;14.318;2022-07-25T13:17:04;36.60;73.10
15217;DHT22;7711;46.634;14.318;2022-07-25T13:19:31;36.30;75.00
15217;DHT22;7711;46.634;14.318;2022-07-25T13:21:59;37.00;76.10
15217;DHT22;7711;46.634;14.318;2022-07-25T13:24:26;37.40;75.10
15217;DHT22;7711;46.634;14.318;2022-07-25T13:26:55;37.30;73.20
15217;DHT22;7711;46.634;14.318;2022-07-25T13:29:24;37.80;72.70
15217;DHT22;7711;46.634;14.318;2022-07-25T13:31:53;38.10;72.00
15217;DHT22;7711;46.634;14.318;2022-07-25T13:34:20;38.80;69.70
15217;DHT22;7711;46.634;14.318;2022-07-25T13:36:48;39.20;69.50
15217;DHT22;7711;46.634;14.318;2022-07-25T13:39:15;39.10;66.60
15217;DHT22;7711;46.634;14.318;2022-07-25T13:41:43;40.20;65.60
15217;DHT22;7711;46.634;14.318;2022-07-25T13:44:11;39.60;62.60
15217;DHT22;7711;46.634;14.318;2022-07-25T13:46:43;37.60;64.10
15217;DHT22;7711;46.634;14.318;2022-07-25T13:49:14;37.30;65.10
15217;DHT22;7711;46.634;14.318;2022-07-25T13:51:42;37.40;65.40
15217;DHT22;7711;46.634;14.318;2022-07-25T13:54:10;38.20;65.70
15217;DHT22;7711;46.634;14.318;2022-07-25T13:56:39;38.90;63.80
15217;DHT22;7711;46.634;14.318;2022-07-25T13:59:10;40.40;64.60
15217;DHT22;7711;46.634;14.318;2022-07-25T14:01:37;40.50;59.80
15217;DHT22;7711;46.634;14.318;2022-07-25T14:04:06;40.50;61.40
15217;DHT22;7711;46.634;14.318;2022-07-25T14:06:33;41.50;59.80
15217;DHT22;7711;46.634;14.318;2022-07-25T14:09:02;41.40;58.90
15217;DHT22;7711;46.634;14.318;2022-07-25T14:11:29;39.80;56.00
15217;DHT22;7711;46.634;14.318;2022-07-25T14:13:59;39.60;57.30
15217;DHT22;7711;46.634;14.318;2022-07-25T14:16:26;39.80;57.20
15217;DHT22;7711;46.634;14.318;2022-07-25T14:18:54;41.20;58.30
15217;DHT22;7711;46.634;14.318;2022-07-25T14:21:23;42.10;57.40
15217;DHT22;7711;46.634;14.318;2022-07-25T14:23:51;41.60;55.20
15217;DHT22;7711;46.634;14.318;2022-07-25T14:26:18;41.30;55.10
15217;DHT22;7711;46.634;14.318;2022-07-25T14:28:46;42.80;55.10
15217;DHT22;7711;46.634;14.318;2022-07-25T14:31:13;42.40;54.80
15217;DHT22;7711;46.634;14.318;2022-07-25T14:33:42;42.60;54.20
15217;DHT22;7711;46.634;14.318;2022-07-25T14:36:10;42.20;53.50
15217;DHT22;7711;46.634;14.318;2022-07-25T14:38:39;42.00;52.70
15217;DHT22;7711;46.634;14.318;2022-07-25T14:41:08;40.20;53.60
15217;DHT22;7711;46.634;14.318;2022-07-25T14:43:37;39.80;52.80
15217;DHT22;7711;46.634;14.318;2022-07-25T14:46:04;39.00;54.50
15217;DHT22;7711;46.634;14.318;2022-07-25T14:48:34;39.10;53.60
15217;DHT22;7711;46.634;14.318;2022-07-25T14:51:02;39.70;55.10
15217;DHT22;7711;46.634;14.318;2022-07-25T14:53:31;39.40;53.20
15217;DHT22;7711;46.634;14.318;2022-07-25T14:56:01;39.00;54.10
15217;DHT22;7711;46.634;14.318;2022-07-25T14:58:31;39.20;54.40
15217;DHT22;7711;46.634;14.318;2022-07-25T15:00:58;39.90;54.20
15217;DHT22;7711;46.634;14.318;2022-07-25T15:03:28;40.90;54.40
15217;DHT22;7711;46.634;14.318;2022-07-25T15:05:58;40.80;53.50
15217;DHT22;7711;46.634;14.318;2022-07-25T15:08:26;40.50;52.40
15217;DHT22;7711;46.634;14.318;2022-07-25T15:10:54;40.50;52.30
15217;DHT22;7711;46.634;14.318;2022-07-25T15:13:23;40.50;52.50
15217;DHT22;7711;46.634;14.318;2022-07-25T15:15:52;41.30;52.70
15217;DHT22;7711;46.634;14.318;2022-07-25T15:18:20;41.20;51.10
15217;DHT22;7711;46.634;14.318;2022-07-25T15:20:48;41.20;50.90
15217;DHT22;7711;46.634;14.318;2022-07-25T15:23:16;41.40;51.30
15217;DHT22;7711;46.634;14.318;2022-07-25T15:25:47;41.70;51.20
15217;DHT22;7711;46.634;14.318;2022-07-25T15:28:15;41.90;50.20
15217;DHT22;7711;46.634;14.318;2022-07-25T15:30:44;41.00;49.60
15217;DHT22;7711;46.634;14.318;2022-07-25T15:33:15;40.20;51.70
15217;DHT22;7711;46.634;14.318;2022-07-25T15:35:43;39.90;51.40
15217;DHT22;7711;46.634;14.318;2022-07-25T15:38:11;40.20;52.00
15217;DHT22;7711;46.634;14.318;2022-07-25T15:40:39;40.40;51.80
15217;DHT22;7711;46.634;14.318;2022-07-25T15:43:06;40.90;51.90